sensor_id;sensor_type;location;lat;lon;timestamp;temperature;humidity
35127;DHT22;21300;52.006;5.798;2022-08-19T00:01:35;21.90;67.50
35127;DHT22;21300;52.006;5.798;2022-08-19T00:04:04;21.80;67.50
35127;DHT22;21300;52.006;5.798;2022-08-19T00:06:33;21.80;67.50
35127;DHT22;21300;52.006;5.798;2022-08-19T00:09:01;21.80;67.50
35127;DHT22;21300;52.006;5.798;2022-08-19T00:11:27;21.70;67.60
35127;DHT22;21300;52.006;5.798;2022-08-19T00:13:53;21.70;67.60
35127;DHT22;21300;52.006;5.798;2022-08-19T00:16:21;21.70;67.60
35127;DHT22;21300;52.006;5.798;2022-08-19T00:18:47;21.70;67.60
35127;DHT22;21300;52.006;5.798;2022-08-19T00:21:14;21.70;67.70
35127;DHT22;21300;52.006;5.798;2022-08-19T00:23:41;21.60;67.70
35127;DHT22;21300;52.006;5.798;2022-08-19T00:26:08;21.60;67.70
35127;DHT22;21300;52.006;5.798;2022-08-19T00:28:37;21.60;67.80
35127;DHT22;21300;52.006;5.798;2022-08-19T00:31:04;21.60;67.70
35127;DHT22;21300;52.006;5.798;2022-08-19T00:33:30;21.60;67.80
35127;DHT22;21300;52.006;5.798;2022-08-19T00:36:00;21.60;67.80
35127;DHT22;21300;52.006;5.798;2022-08-19T00:38:29;21.50;67.80
35127;DHT22;21300;52.006;5.798;2022-08-19T00:40:57;21.50;67.90
35127;DHT22;21300;52.006;5.798;2022-08-19T00:43:25;21.40;67.90
35127;DHT22;21300;52.006;5.798;2022-08-19T00:45:52;21.40;67.90
35127;DHT22;21300;52.006;5.798;2022-08-19T00:48:37;21.40;67.90
35127;DHT22;21300;52.006;5.798;2022-08-19T00:51:04;21.40;67.90
35127;DHT22;21300;52.006;5.798;2022-08-19T00:53:31;21.40;67.90
35127;DHT22;21300;52.006;5.798;2022-08-19T00:56:01;21.30;67.90
35127;DHT22;21300;52.006;5.798;2022-08-19T00:58:31;21.40;68.00
35127;DHT22;21300;52.006;5.798;2022-08-19T01:01:17;21.30;67.90
35127;DHT22;21300;52.006;5.798;2022-08-19T01:03:43;21.30;67.90
35127;DHT22;21300;52.006;5.798;2022-08-19T01:06:09;21.30;67.90
35127;DHT22;21300;52.006;5.798;2022-08-19T01:08:55;21.30;68.00
35127;DHT22;21300;52.006;5.798;2022-08-19T01:11:34;21.20;68.00
35127;DHT22;21300;52.006;5.798;2022-08-19T01:14:01;21.20;68.00
35127;DHT22;21300;52.006;5.798;2022-08-19T01:16:31;21.20;68.00
35127;DHT22;21300;52.006;5.798;2022-08-19T01:18:58;21.20;68.00
35127;DHT22;21300;52.006;5.798;2022-08-19T01:21:40;21.20;68.10
35127;DHT22;21300;52.006;5.798;2022-08-19T01:24:25;21.10;68.00
35127;DHT22;21300;52.006;5.798;2022-08-19T01:26:54;21.10;68.00
35127;DHT22;21300;52.006;5.798;2022-08-19T01:29:20;21.10;68.10
35127;DHT22;21300;52.006;5.798;2022-08-19T01:31:46;21.10;68.10
35127;DHT22;21300;52.006;5.798;2022-08-19T01:34:11;21.10;68.10
35127;DHT22;21300;52.006;5.798;2022-08-19T01:36:42;21.00;68.10
35127;DHT22;21300;52.006;5.798;2022-08-19T01:39:21;21.00;68.20
35127;DHT22;21300;52.006;5.798;2022-08-19T01:41:47;21.00;68.20
35127;DHT22;21300;52.006;5.798;2022-08-19T01:44:14;21.00;68.10
35127;DHT22;21300;52.006;5.798;2022-08-19T01:46:41;21.00;69.00
35127;DHT22;21300;52.006;5.798;2022-08-19T01:49:08;20.90;68.20
35127;DHT22;21300;52.006;5.798;2022-08-19T01:51:34;20.90;68.20
35127;DHT22;21300;52.006;5.798;2022-08-19T01:54:01;20.90;68.20
35127;DHT22;21300;52.006;5.798;2022-08-19T01:56:35;20.90;68.20
35127;DHT22;21300;52.006;5.798;2022-08-19T01:59:09;20.90;68.20
35127;DHT22;21300;52.006;5.798;2022-08-19T02:01:41;20.90;68.30
35127;DHT22;21300;52.006;5.798;2022-08-19T02:04:07;20.80;68.20
35127;DHT22;21300;52.006;5.798;2022-08-19T02:06:33;20.80;68.20
35127;DHT22;21300;52.006;5.798;2022-08-19T02:08:59;20.80;68.20
35127;DHT22;21300;52.006;5.798;2022-08-19T02:11:28;20.80;68.20
35127;DHT22;21300;52.006;5.798;2022-08-19T02:13:57;20.80;68.30
35127;DHT22;21300;52.006;5.798;2022-08-19T02:16:24;20.70;68.30
35127;DHT22;21300;52.006;5.798;2022-08-19T02:18:50;20.70;68.30
35127;DHT22;21300;52.006;5.798;2022-08-19T02:21:17;20.70;68.30
35127;DHT22;21300;52.006;5.798;2022-08-19T02:23:44;20.70;68.30
35127;DHT22;21300;52.006;5.798;2022-08-19T02:26:11;20.70;68.40
35127;DHT22;21300;52.006;5.798;2022-08-19T02:28:38;20.60;68.20
35127;DHT22;21300;52.006;5.798;2022-08-19T02:31:08;20.70;68.40
35127;DHT22;21300;52.006;5.798;2022-08-19T02:33:35;20.60;68.30
35127;DHT22;21300;52.006;5.798;2022-08-19T02:36:06;20.60;68.40
35127;DHT22;21300;52.006;5.798;2022-08-19T02:38:33;20.60;68.30
35127;DHT22;21300;52.006;5.798;2022-08-19T02:41:07;20.60;68.40
35127;DHT22;21300;52.006;5.798;2022-08-19T02:43:36;20.60;68.40
35127;DHT22;21300;52.006;5.798;2022-08-19T02:46:24;20.60;68.50
35127;DHT22;21300;52.006;5.798;2022-08-19T02:48:51;20.50;68.30
35127;DHT22;21300;52.006;5.798;2022-08-19T02:51:28;20.50;68.40
35127;DHT22;21300;52.006;5.798;2022-08-19T02:53:54;20.50;68.40
35127;DHT22;21300;52.006;5.798;2022-08-19T02:56:24;20.50;68.60
35127;DHT22;21300;52.006;5.798;2022-08-19T02:58:54;20.40;68.40
35127;DHT22;21300;52.006;5.798;2022-08-19T03:01:40;20.50;68.50
35127;DHT22;21300;52.006;5.798;2022-08-19T03:04:12;20.40;68.40
35127;DHT22;21300;52.006;5.798;2022-08-19T03:06:43;20.40;68.30
35127;DHT22;21300;52.006;5.798;2022-08-19T03:09:10;20.40;68.50
35127;DHT22;21300;52.006;5.798;2022-08-19T03:11:36;20.30;68.50
35127;DHT22;21300;52.006;5.798;2022-08-19T03:14:03;20.30;68.50
35127;DHT22;21300;52.006;5.798;2022-08-19T03:16:32;20.30;68.40
35127;DHT22;21300;52.006;5.798;2022-08-19T03:18:58;20.40;68.60
35127;DHT22;21300;52.006;5.798;2022-08-19T03:21:26;20.30;68.50
35127;DHT22;21300;52.006;5.798;2022-08-19T03:23:57;20.30;68.60
35127;DHT22;21300;52.006;5.798;2022-08-19T03:26:23;20.30;68.60
35127;DHT22;21300;52.006;5.798;2022-08-19T03:28:49;20.30;68.60
35127;DHT22;21300;52.006;5.798;2022-08-19T03:31:17;20.20;68.60
35127;DHT22;21300;52.006;5.798;2022-08-19T03:33:44;20.20;68.60
35127;DHT22;21300;52.006;5.798;2022-08-19T03:36:19;20.20;68.60
35127;DHT22;21300;52.006;5.798;2022-08-19T03:38:48;20.20;68.60
35127;DHT22;21300;52.006;5.798;2022-08-19T03:41:24;20.20;68.70
35127;DHT22;21300;52.006;5.798;2022-08-19T03:43:49;20.20;68.70
35127;DHT22;21300;52.006;5.798;2022-08-19T03:46:18;20.20;68.60
35127;DHT22;21300;52.006;5.798;2022-08-19T03:48:48;20.10;68.60
35127;DHT22;21300;52.006;5.798;2022-08-19T03:51:25;20.10;68.60
35127;DHT22;21300;52.006;5.798;2022-08-19T03:53:53;20.10;68.50
35127;DHT22;21300;52.006;5.798;2022-08-19T03:56:19;20.10;68.50
35127;DHT22;21300;52.006;5.798;2022-08-19T03:58:46;20.10;68.50
35127;DHT22;21300;52.006;5.798;2022-08-19T04:01:16;20.00;68.50
35127;DHT22;21300;52.006;5.798;2022-08-19T04:03:44;20.00;68.60
35127;DHT22;21300;52.006;5.798;2022-08-19T04:06:19;20.00;68.60
35127;DHT22;21300;52.006;5.798;2022-08-19T04:08:47;20.00;68.60
35127;DHT22;21300;52.006;5.798;2022-08-19T04:11:16;20.00;68.60
35127;DHT22;21300;52.006;5.798;2022-08-19T04:13:42;20.00;69.40
35127;DHT22;21300;52.006;5.798;2022-08-19T04:16:11;20.00;68.70
35127;DHT22;21300;52.006;5.798;2022-08-19T04:18:38;20.00;68.60
35127;DHT22;21300;52.006;5.798;2022-08-19T04:21:05;19.90;68.60
35127;DHT22;21300;52.006;5.798;2022-08-19T04:23:32;19.90;68.60
35127;DHT22;21300;52.006;5.798;2022-08-19T04:25:58;19.90;68.60
35127;DHT22;21300;52.006;5.798;2022-08-19T04:28:25;19.90;68.60
35127;DHT22;21300;52.006;5.798;2022-08-19T04:30:53;19.80;68.60
35127;DHT22;21300;52.006;5.798;2022-08-19T04:33:22;19.80;68.70
35127;DHT22;21300;52.006;5.798;2022-08-19T04:35:49;19.80;69.40
35127;DHT22;21300;52.006;5.798;2022-08-19T04:38:17;19.80;68.60
35127;DHT22;21300;52.006;5.798;2022-08-19T04:40:47;19.80;68.70
35127;DHT22;21300;52.006;5.798;2022-08-19T04:43:32;19.80;68.50
35127;DHT22;21300;52.006;5.798;2022-08-19T04:46:05;19.80;68.70
35127;DHT22;21300;52.006;5.798;2022-08-19T04:48:31;19.70;68.60
35127;DHT22;21300;52.006;5.798;2022-08-19T04:50:58;19.70;68.60
35127;DHT22;21300;52.006;5.798;2022-08-19T04:53:28;19.70;68.60
35127;DHT22;21300;52.006;5.798;2022-08-19T04:55:58;19.70;68.60
35127;DHT22;21300;52.006;5.798;2022-08-19T04:58:26;19.70;68.60
35127;DHT22;21300;52.006;5.798;2022-08-19T05:00:52;19.70;68.60
35127;DHT22;21300;52.006;5.798;2022-08-19T05:03:19;19.70;68.70
35127;DHT22;21300;52.006;5.798;2022-08-19T05:05:47;19.70;68.60
35127;DHT22;21300;52.006;5.798;2022-08-19T05:08:17;19.60;68.60
35127;DHT22;21300;52.006;5.798;2022-08-19T05:10:50;19.60;68.60
35127;DHT22;21300;52.006;5.798;2022-08-19T05:13:18;19.60;68.60
35127;DHT22;21300;52.006;5.798;2022-08-19T05:15:45;19.60;68.60
35127;DHT22;21300;52.006;5.798;2022-08-19T05:18:18;19.60;68.70
35127;DHT22;21300;52.006;5.798;2022-08-19T05:21:07;19.60;68.80
35127;DHT22;21300;52.006;5.798;2022-08-19T05:23:51;19.50;68.70
35127;DHT22;21300;52.006;5.798;2022-08-19T05:26:17;19.50;68.70
35127;DHT22;21300;52.006;5.798;2022-08-19T05:28:43;19.50;68.70
35127;DHT22;21300;52.006;5.798;2022-08-19T05:31:08;19.50;68.70
35127;DHT22;21300;52.006;5.798;2022-08-19T05:33:36;19.50;68.80
35127;DHT22;21300;52.006;5.798;2022-08-19T05:36:03;19.50;68.70
35127;DHT22;21300;52.006;5.798;2022-08-19T05:38:28;19.50;68.70
35127;DHT22;21300;52.006;5.798;2022-08-19T05:41:14;19.40;68.70
35127;DHT22;21300;52.006;5.798;2022-08-19T05:43:40;19.40;68.70
35127;DHT22;21300;52.006;5.798;2022-08-19T05:46:07;19.40;68.80
35127;DHT22;21300;52.006;5.798;2022-08-19T05:48:34;19.40;68.70
35127;DHT22;21300;52.006;5.798;2022-08-19T05:51:07;19.40;68.80
35127;DHT22;21300;52.006;5.798;2022-08-19T05:53:34;19.40;68.90
35127;DHT22;21300;52.006;5.798;2022-08-19T05:56:10;19.40;68.90
35127;DHT22;21300;52.006;5.798;2022-08-19T05:58:36;19.40;68.80
35127;DHT22;21300;52.006;5.798;2022-08-19T06:01:08;19.40;68.90
35127;DHT22;21300;52.006;5.798;2022-08-19T06:03:35;19.40;69.00
35127;DHT22;21300;52.006;5.798;2022-08-19T06:06:03;19.40;69.00
35127;DHT22;21300;52.006;5.798;2022-08-19T06:08:29;19.40;69.00
35127;DHT22;21300;52.006;5.798;2022-08-19T06:10:55;19.40;69.00
35127;DHT22;21300;52.006;5.798;2022-08-19T06:13:21;19.40;69.10
35127;DHT22;21300;52.006;5.798;2022-08-19T06:15:48;19.40;69.80
35127;DHT22;21300;52.006;5.798;2022-08-19T06:18:15;19.40;69.00
35127;DHT22;21300;52.006;5.798;2022-08-19T06:20:41;19.40;69.10
35127;DHT22;21300;52.006;5.798;2022-08-19T06:23:07;19.40;69.10
35127;DHT22;21300;52.006;5.798;2022-08-19T06:25:33;19.40;69.20
35127;DHT22;21300;52.006;5.798;2022-08-19T06:27:59;19.40;69.30
35127;DHT22;21300;52.006;5.798;2022-08-19T06:30:24;19.40;69.40
35127;DHT22;21300;52.006;5.798;2022-08-19T06:32:50;19.30;69.40
35127;DHT22;21300;52.006;5.798;2022-08-19T06:35:16;19.30;69.40
35127;DHT22;21300;52.006;5.798;2022-08-19T06:37:42;19.40;69.50
35127;DHT22;21300;52.006;5.798;2022-08-19T06:40:08;19.40;69.50
35127;DHT22;21300;52.006;5.798;2022-08-19T06:42:36;19.30;69.50
35127;DHT22;21300;52.006;5.798;2022-08-19T06:45:04;19.40;69.70
35127;DHT22;21300;52.006;5.798;2022-08-19T06:47:30;19.40;69.70
35127;DHT22;21300;52.006;5.798;2022-08-19T06:49:59;19.40;69.70
35127;DHT22;21300;52.006;5.798;2022-08-19T06:52:27;19.40;69.70
35127;DHT22;21300;52.006;5.798;2022-08-19T06:54:53;19.40;69.70
35127;DHT22;21300;52.006;5.798;2022-08-19T06:57:20;19.40;69.70
35127;DHT22;21300;52.006;5.798;2022-08-19T06:59:46;19.40;69.60
35127;DHT22;21300;52.006;5.798;2022-08-19T07:02:12;19.40;69.60
35127;DHT22;21300;52.006;5.798;2022-08-19T07:04:38;19.40;69.80
35127;DHT22;21300;52.006;5.798;2022-08-19T07:07:13;19.40;69.80
35127;DHT22;21300;52.006;5.798;2022-08-19T07:09:40;19.40;69.90
35127;DHT22;21300;52.006;5.798;2022-08-19T07:12:07;19.40;69.90
35127;DHT22;21300;52.006;5.798;2022-08-19T07:14:35;19.50;70.00
35127;DHT22;21300;52.006;5.798;2022-08-19T07:17:03;19.50;70.10
35127;DHT22;21300;52.006;5.798;2022-08-19T07:19:30;19.50;70.00
35127;DHT22;21300;52.006;5.798;2022-08-19T07:21:57;19.50;70.00
35127;DHT22;21300;52.006;5.798;2022-08-19T07:24:26;19.50;70.00
35127;DHT22;21300;52.006;5.798;2022-08-19T07:26:54;19.50;69.90
35127;DHT22;21300;52.006;5.798;2022-08-19T07:29:21;19.60;70.10
35127;DHT22;21300;52.006;5.798;2022-08-19T07:31:50;19.60;70.10
35127;DHT22;21300;52.006;5.798;2022-08-19T07:34:17;19.60;70.10
35127;DHT22;21300;52.006;5.798;2022-08-19T07:36:43;19.60;70.10
35127;DHT22;21300;52.006;5.798;2022-08-19T07:39:15;19.60;70.20
35127;DHT22;21300;52.006;5.798;2022-08-19T07:41:41;19.60;70.10
35127;DHT22;21300;52.006;5.798;2022-08-19T07:44:08;19.60;70.00
35127;DHT22;21300;52.006;5.798;2022-08-19T07:46:37;19.60;70.10
35127;DHT22;21300;52.006;5.798;2022-08-19T07:49:04;19.60;70.30
35127;DHT22;21300;52.006;5.798;2022-08-19T07:51:30;19.60;70.10
35127;DHT22;21300;52.006;5.798;2022-08-19T07:53:56;19.70;70.20
35127;DHT22;21300;52.006;5.798;2022-08-19T07:56:22;19.70;70.10
35127;DHT22;21300;52.006;5.798;2022-08-19T07:58:50;19.70;70.20
35127;DHT22;21300;52.006;5.798;2022-08-19T08:01:19;19.70;70.00
35127;DHT22;21300;52.006;5.798;2022-08-19T08:03:48;19.80;70.10
35127;DHT22;21300;52.006;5.798;2022-08-19T08:06:32;19.70;69.90
35127;DHT22;21300;52.006;5.798;2022-08-19T08:09:20;19.80;70.10
35127;DHT22;21300;52.006;5.798;2022-08-19T08:11:53;19.80;70.10
35127;DHT22;21300;52.006;5.798;2022-08-19T08:14:22;19.80;70.20
35127;DHT22;21300;52.006;5.798;2022-08-19T08:16:50;19.90;70.20
35127;DHT22;21300;52.006;5.798;2022-08-19T08:19:21;19.90;70.20
35127;DHT22;21300;52.006;5.798;2022-08-19T08:21:48;19.90;70.10
35127;DHT22;21300;52.006;5.798;2022-08-19T08:24:14;19.90;70.10
35127;DHT22;21300;52.006;5.798;2022-08-19T08:26:40;19.90;70.10
35127;DHT22;21300;52.006;5.798;2022-08-19T08:29:07;19.90;70.20
35127;DHT22;21300;52.006;5.798;2022-08-19T08:31:34;20.00;70.20
35127;DHT22;21300;52.006;5.798;2022-08-19T08:34:00;20.00;70.30
35127;DHT22;21300;52.006;5.798;2022-08-19T08:36:26;20.00;70.20
35127;DHT22;21300;52.006;5.798;2022-08-19T08:38:52;20.00;70.20
35127;DHT22;21300;52.006;5.798;2022-08-19T08:44:06;20.00;70.10
35127;DHT22;21300;52.006;5.798;2022-08-19T08:46:41;20.10;70.20
35127;DHT22;21300;52.006;5.798;2022-08-19T08:49:45;20.10;70.20
35127;DHT22;21300;52.006;5.798;2022-08-19T08:52:15;20.20;70.20
35127;DHT22;21300;52.006;5.798;2022-08-19T08:54:47;20.20;70.40
35127;DHT22;21300;52.006;5.798;2022-08-19T08:57:20;20.20;70.50
35127;DHT22;21300;52.006;5.798;2022-08-19T08:59:51;20.20;70.40
35127;DHT22;21300;52.006;5.798;2022-08-19T09:02:19;20.30;70.40
35127;DHT22;21300;52.006;5.798;2022-08-19T09:04:45;20.30;70.50
35127;DHT22;21300;52.006;5.798;2022-08-19T09:07:18;20.30;70.50
35127;DHT22;21300;52.006;5.798;2022-08-19T09:10:04;20.40;70.50
35127;DHT22;21300;52.006;5.798;2022-08-19T09:12:53;20.40;70.30
35127;DHT22;21300;52.006;5.798;2022-08-19T09:15:37;20.50;70.40
35127;DHT22;21300;52.006;5.798;2022-08-19T09:18:04;20.50;70.40
35127;DHT22;21300;52.006;5.798;2022-08-19T09:20:32;20.50;70.50
35127;DHT22;21300;52.006;5.798;2022-08-19T09:22:58;20.60;70.50
35127;DHT22;21300;52.006;5.798;2022-08-19T09:25:24;20.60;70.70
35127;DHT22;21300;52.006;5.798;2022-08-19T09:27:51;20.60;70.80
35127;DHT22;21300;52.006;5.798;2022-08-19T09:30:27;20.70;71.00
35127;DHT22;21300;52.006;5.798;2022-08-19T09:32:54;20.70;71.10
35127;DHT22;21300;52.006;5.798;2022-08-19T09:35:22;20.80;71.00
35127;DHT22;21300;52.006;5.798;2022-08-19T09:37:49;20.80;71.90
35127;DHT22;21300;52.006;5.798;2022-08-19T09:40:15;20.80;71.30
35127;DHT22;21300;52.006;5.798;2022-08-19T09:42:42;20.80;71.60
35127;DHT22;21300;52.006;5.798;2022-08-19T09:45:14;20.90;71.70
35127;DHT22;21300;52.006;5.798;2022-08-19T09:47:40;21.00;71.60
35127;DHT22;21300;52.006;5.798;2022-08-19T09:50:07;21.00;71.50
35127;DHT22;21300;52.006;5.798;2022-08-19T09:52:34;21.00;71.60
35127;DHT22;21300;52.006;5.798;2022-08-19T09:55:04;21.00;71.60
35127;DHT22;21300;52.006;5.798;2022-08-19T09:57:30;21.10;71.60
35127;DHT22;21300;52.006;5.798;2022-08-19T09:59:55;21.20;71.60
35127;DHT22;21300;52.006;5.798;2022-08-19T10:02:21;21.20;71.50
35127;DHT22;21300;52.006;5.798;2022-08-19T10:04:47;21.20;71.50
35127;DHT22;21300;52.006;5.798;2022-08-19T10:07:31;21.30;71.40
35127;DHT22;21300;52.006;5.798;2022-08-19T10:09:56;21.40;71.40
35127;DHT22;21300;52.006;5.798;2022-08-19T10:12:22;21.40;71.30
35127;DHT22;21300;52.006;5.798;2022-08-19T10:14:48;21.50;71.30
35127;DHT22;21300;52.006;5.798;2022-08-19T10:17:16;21.50;71.30
35127;DHT22;21300;52.006;5.798;2022-08-19T10:19:43;21.50;71.10
35127;DHT22;21300;52.006;5.798;2022-08-19T10:22:08;21.60;71.20
35127;DHT22;21300;52.006;5.798;2022-08-19T10:24:36;21.60;71.10
35127;DHT22;21300;52.006;5.798;2022-08-19T10:27:02;21.70;71.20
35127;DHT22;21300;52.006;5.798;2022-08-19T10:29:30;21.70;71.20
35127;DHT22;21300;52.006;5.798;2022-08-19T10:32:14;21.70;71.20
35127;DHT22;21300;52.006;5.798;2022-08-19T10:34:40;21.80;71.10
35127;DHT22;21300;52.006;5.798;2022-08-19T10:37:06;21.90;71.10
35127;DHT22;21300;52.006;5.798;2022-08-19T10:39:33;21.90;71.20
35127;DHT22;21300;52.006;5.798;2022-08-19T10:42:07;21.90;71.00
35127;DHT22;21300;52.006;5.798;2022-08-19T10:44:36;22.00;71.10
35127;DHT22;21300;52.006;5.798;2022-08-19T10:47:02;22.00;71.00
35127;DHT22;21300;52.006;5.798;2022-08-19T10:49:28;22.10;71.00
35127;DHT22;21300;52.006;5.798;2022-08-19T10:51:55;22.10;71.10
35127;DHT22;21300;52.006;5.798;2022-08-19T10:54:40;22.10;71.10
35127;DHT22;21300;52.006;5.798;2022-08-19T10:57:24;22.20;71.10
35127;DHT22;21300;52.006;5.798;2022-08-19T10:59:55;22.30;71.00
35127;DHT22;21300;52.006;5.798;2022-08-19T11:02:21;22.30;71.00
35127;DHT22;21300;52.006;5.798;2022-08-19T11:04:47;22.40;71.00
35127;DHT22;21300;52.006;5.798;2022-08-19T11:07:15;22.40;71.00
35127;DHT22;21300;52.006;5.798;2022-08-19T11:09:42;22.40;71.00
35127;DHT22;21300;52.006;5.798;2022-08-19T11:12:09;22.50;71.20
35127;DHT22;21300;52.006;5.798;2022-08-19T11:14:35;22.50;71.10
35127;DHT22;21300;52.006;5.798;2022-08-19T11:17:03;22.50;71.00
35127;DHT22;21300;52.006;5.798;2022-08-19T11:19:29;22.60;71.10
35127;DHT22;21300;52.006;5.798;2022-08-19T11:21:55;22.70;71.00
35127;DHT22;21300;52.006;5.798;2022-08-19T11:24:23;22.70;70.90
35127;DHT22;21300;52.006;5.798;2022-08-19T11:26:51;22.80;71.00
35127;DHT22;21300;52.006;5.798;2022-08-19T11:29:22;22.80;70.90
35127;DHT22;21300;52.006;5.798;2022-08-19T11:31:51;22.80;70.90
35127;DHT22;21300;52.006;5.798;2022-08-19T11:34:23;22.90;70.80
35127;DHT22;21300;52.006;5.798;2022-08-19T11:36:50;22.90;70.80
35127;DHT22;21300;52.006;5.798;2022-08-19T11:39:19;22.90;70.80
35127;DHT22;21300;52.006;5.798;2022-08-19T11:41:45;23.00;70.70
35127;DHT22;21300;52.006;5.798;2022-08-19T11:44:11;23.00;70.70
35127;DHT22;21300;52.006;5.798;2022-08-19T11:46:39;23.10;70.70
35127;DHT22;21300;52.006;5.798;2022-08-19T11:49:06;23.10;70.70
35127;DHT22;21300;52.006;5.798;2022-08-19T11:51:34;23.20;70.60
35127;DHT22;21300;52.006;5.798;2022-08-19T11:54:01;23.20;70.60
35127;DHT22;21300;52.006;5.798;2022-08-19T11:56:28;23.20;70.50
35127;DHT22;21300;52.006;5.798;2022-08-19T11:58:54;23.30;70.50
35127;DHT22;21300;52.006;5.798;2022-08-19T12:01:23;23.30;70.40
35127;DHT22;21300;52.006;5.798;2022-08-19T12:03:50;23.40;70.50
35127;DHT22;21300;52.006;5.798;2022-08-19T12:06:22;23.40;70.40
35127;DHT22;21300;52.006;5.798;2022-08-19T12:08:51;23.40;70.50
35127;DHT22;21300;52.006;5.798;2022-08-19T12:11:17;23.50;70.40
35127;DHT22;21300;52.006;5.798;2022-08-19T12:13:43;23.50;70.30
35127;DHT22;21300;52.006;5.798;2022-08-19T12:16:20;23.60;70.40
35127;DHT22;21300;52.006;5.798;2022-08-19T12:18:47;23.60;70.30
35127;DHT22;21300;52.006;5.798;2022-08-19T12:21:18;23.70;70.30
35127;DHT22;21300;52.006;5.798;2022-08-19T12:23:47;23.70;70.20
35127;DHT22;21300;52.006;5.798;2022-08-19T12:26:14;23.70;70.10
35127;DHT22;21300;52.006;5.798;2022-08-19T12:28:39;23.70;70.00
35127;DHT22;21300;52.006;5.798;2022-08-19T12:31:07;23.80;70.00
35127;DHT22;21300;52.006;5.798;2022-08-19T12:33:33;23.80;69.90
35127;DHT22;21300;52.006;5.798;2022-08-19T12:36:07;23.90;69.90
35127;DHT22;21300;52.006;5.798;2022-08-19T12:38:33;23.90;69.80
35127;DHT22;21300;52.006;5.798;2022-08-19T12:41:00;23.90;69.80
35127;DHT22;21300;52.006;5.798;2022-08-19T12:43:26;23.90;69.70
35127;DHT22;21300;52.006;5.798;2022-08-19T12:45:52;24.00;69.60
35127;DHT22;21300;52.006;5.798;2022-08-19T12:48:17;24.00;69.50
35127;DHT22;21300;52.006;5.798;2022-08-19T12:50:44;24.10;69.50
35127;DHT22;21300;52.006;5.798;2022-08-19T12:53:14;24.10;69.50
35127;DHT22;21300;52.006;5.798;2022-08-19T12:55:40;24.10;69.40
35127;DHT22;21300;52.006;5.798;2022-08-19T12:58:06;24.10;69.30
35127;DHT22;21300;52.006;5.798;2022-08-19T13:00:31;24.20;69.40
35127;DHT22;21300;52.006;5.798;2022-08-19T13:02:59;24.20;69.30
35127;DHT22;21300;52.006;5.798;2022-08-19T13:05:28;24.20;69.30
35127;DHT22;21300;52.006;5.798;2022-08-19T13:07:56;24.20;69.20
35127;DHT22;21300;52.006;5.798;2022-08-19T13:10:25;24.30;69.10
35127;DHT22;21300;52.006;5.798;2022-08-19T13:12:54;24.30;69.10
35127;DHT22;21300;52.006;5.798;2022-08-19T13:15:21;24.30;69.10
35127;DHT22;21300;52.006;5.798;2022-08-19T13:17:49;24.40;69.10
35127;DHT22;21300;52.006;5.798;2022-08-19T13:20:17;24.40;68.90
35127;DHT22;21300;52.006;5.798;2022-08-19T13:22:44;24.40;69.00
35127;DHT22;21300;52.006;5.798;2022-08-19T13:25:11;24.40;68.80
35127;DHT22;21300;52.006;5.798;2022-08-19T13:27:38;24.50;68.80
35127;DHT22;21300;52.006;5.798;2022-08-19T13:30:07;24.50;68.70
35127;DHT22;21300;52.006;5.798;2022-08-19T13:32:51;24.50;68.80
35127;DHT22;21300;52.006;5.798;2022-08-19T13:35:46;24.60;68.90
35127;DHT22;21300;52.006;5.798;2022-08-19T13:38:14;24.60;68.80
35127;DHT22;21300;52.006;5.798;2022-08-19T13:40:40;24.60;68.90
35127;DHT22;21300;52.006;5.798;2022-08-19T13:43:07;24.60;68.80
35127;DHT22;21300;52.006;5.798;2022-08-19T13:45:33;24.60;68.90
35127;DHT22;21300;52.006;5.798;2022-08-19T13:48:00;24.70;68.80
35127;DHT22;21300;52.006;5.798;2022-08-19T13:50:28;24.70;68.80
35127;DHT22;21300;52.006;5.798;2022-08-19T13:52:57;24.70;68.80
35127;DHT22;21300;52.006;5.798;2022-08-19T13:55:24;24.80;68.80
35127;DHT22;21300;52.006;5.798;2022-08-19T13:57:54;24.80;68.80
35127;DHT22;21300;52.006;5.798;2022-08-19T14:00:22;24.80;68.90
35127;DHT22;21300;52.006;5.798;2022-08-19T14:02:52;24.80;68.80
35127;DHT22;21300;52.006;5.798;2022-08-19T14:05:19;24.80;68.80
35127;DHT22;21300;52.006;5.798;2022-08-19T14:07:45;24.90;68.90
35127;DHT22;21300;52.006;5.798;2022-08-19T14:10:12;24.90;68.80
35127;DHT22;21300;52.006;5.798;2022-08-19T14:12:39;24.90;68.70
35127;DHT22;21300;52.006;5.798;2022-08-19T14:15:07;24.90;68.90
35127;DHT22;21300;52.006;5.798;2022-08-19T14:17:33;25.00;68.80
35127;DHT22;21300;52.006;5.798;2022-08-19T14:20:03;25.00;68.80
35127;DHT22;21300;52.006;5.798;2022-08-19T14:22:37;25.00;68.90
35127;DHT22;21300;52.006;5.798;2022-08-19T14:25:04;25.00;68.80
35127;DHT22;21300;52.006;5.798;2022-08-19T14:27:32;25.10;68.90
35127;DHT22;21300;52.006;5.798;2022-08-19T14:29:58;25.10;69.60
35127;DHT22;21300;52.006;5.798;2022-08-19T14:32:24;25.10;68.90
35127;DHT22;21300;52.006;5.798;2022-08-19T14:34:53;25.10;68.90
35127;DHT22;21300;52.006;5.798;2022-08-19T14:37:18;25.10;68.80
35127;DHT22;21300;52.006;5.798;2022-08-19T14:39:44;25.10;68.80
35127;DHT22;21300;52.006;5.798;2022-08-19T14:42:11;25.10;68.70
35127;DHT22;21300;52.006;5.798;2022-08-19T14:44:37;25.10;68.70
35127;DHT22;21300;52.006;5.798;2022-08-19T14:47:03;25.20;68.80
35127;DHT22;21300;52.006;5.798;2022-08-19T14:49:29;25.20;68.90
35127;DHT22;21300;52.006;5.798;2022-08-19T14:51:55;25.20;68.90
35127;DHT22;21300;52.006;5.798;2022-08-19T14:54:21;25.20;68.90
35127;DHT22;21300;52.006;5.798;2022-08-19T14:56:47;25.20;69.00
35127;DHT22;21300;52.006;5.798;2022-08-19T14:59:14;25.20;68.90
35127;DHT22;21300;52.006;5.798;2022-08-19T15:01:39;25.20;68.90
35127;DHT22;21300;52.006;5.798;2022-08-19T15:04:05;25.20;68.90
35127;DHT22;21300;52.006;5.798;2022-08-19T15:06:31;25.20;68.90
35127;DHT22;21300;52.006;5.798;2022-08-19T15:08:58;25.20;68.90
35127;DHT22;21300;52.006;5.798;2022-08-19T15:11:25;25.30;69.00
35127;DHT22;21300;52.006;5.798;2022-08-19T15:13:52;25.20;68.90
35127;DHT22;21300;52.006;5.798;2022-08-19T15:16:19;25.20;68.90
35127;DHT22;21300;52.006;5.798;2022-08-19T15:18:46;25.30;69.10
35127;DHT22;21300;52.006;5.798;2022-08-19T15:21:15;25.30;69.10
35127;DHT22;21300;52.006;5.798;2022-08-19T15:24:00;25.30;69.10
35127;DHT22;21300;52.006;5.798;2022-08-19T15:26:26;25.30;69.20
35127;DHT22;21300;52.006;5.798;2022-08-19T15:28:56;25.30;69.20
35127;DHT22;21300;52.006;5.798;2022-08-19T15:31:23;25.30;69.30
35127;DHT22;21300;52.006;5.798;2022-08-19T15:33:49;25.30;69.30
35127;DHT22;21300;52.006;5.798;2022-08-19T15:36:15;25.30;70.10
35127;DHT22;21300;52.006;5.798;2022-08-19T15:38:41;25.30;69.30
35127;DHT22;21300;52.006;5.798;2022-08-19T15:41:18;25.30;69.30
35127;DHT22;21300;52.006;5.798;2022-08-19T15:46:21;25.30;69.20